Time;durP1;ratioP1;P1;durP2;ratioP2;P2;SDS_P1;SDS_P2;PMS_P1;PMS_P2;Temp;Humidity;BMP_temperature;BMP_pressure;BME280_temperature;BME280_humidity;BME280_pressure;Samples;Min_cycle;Max_cycle;Signal;HPM_P1;HPM_P2
2023/02/09 00:02:18;;;;;;;;;;;;;;;;;;4423398;32;19985;-70
2023/02/09 00:04:43;;;;;;;;;;;;;;;;;;4425347;32;19947;-70
2023/02/09 00:07:09;;;;;;;;;;;;;;;;;;4422292;32;19945;-69
2023/02/09 00:09:34;;;;;;;;;;;;;;;;;;4423824;32;20312;-68
2023/02/09 00:14:43;;;;;;;;;;;;;;;;;;4424586;32;19966;-69
2023/02/09 00:17:08;;;;;;;;;;;;;;;;;;4421493;32;19941;-69
2023/02/09 00:19:33;;;;;;;;;;;;;;;;;;4422488;32;20333;-69
2023/02/09 00:21:58;;;;;;;;;;;;;;;;;;4424560;32;19933;-70
2023/02/09 00:24:23;;;;;;;;;;;;;;;;;;4423600;32;19940;-70
2023/02/09 00:26:48;;;;;;;;;;;;;;;;;;4423639;32;20021;-69
2023/02/09 00:29:13;;;;;;;;;;;;;;;;;;4423197;32;19995;-69
2023/02/09 00:31:38;;;;;;;;;;;;;;;;;;4423087;32;19952;-69
2023/02/09 00:34:04;;;;;;;;;;;;;;;;;;4423914;32;19929;-69
2023/02/09 00:36:29;;;;;;;;;;;;;;;;;;4424591;32;19933;-70
2023/02/09 00:38:54;;;;;;;;;;;;;;;;;;4422269;32;20000;-70
2023/02/09 00:44:03;;;;;;;;;;;;;;;;;;4422554;32;19940;-68
2023/02/09 00:46:28;;;;;;;;;;;;;;;;;;4423253;32;19941;-69
2023/02/09 00:48:53;;;;;;;;;;;;;;;;;;4420909;32;19945;-69
2023/02/09 00:51:18;;;;;;;;;;;;;;;;;;4422576;32;19976;-69
2023/02/09 00:53:43;;;;;;;;;;;;;;;;;;4423916;32;19947;-70
2023/02/09 00:56:08;;;;;;;;;;;;;;;;;;4423622;32;19951;-69
2023/02/09 00:58:34;;;;;;;;;;;;;;;;;;4421767;32;19937;-70
2023/02/09 01:00:59;;;;;;;;;;;;;;;;;;4420962;32;19937;-70
2023/02/09 01:03:24;;;;;;;;;;;;;;;;;;4422163;32;20312;-70
2023/02/09 01:05:49;;;;;;;;;;;;;;;;;;4423486;32;19982;-70
2023/02/09 01:08:14;;;;;;;;;;;;;;;;;;4421795;32;19943;-70
2023/02/09 01:10:39;;;;;;;;;;;;;;;;;;4421773;32;19957;-69
2023/02/09 01:13:04;;;;;;;;;;;;;;;;;;4421693;32;19938;-69
2023/02/09 01:15:29;;;;;;;;;;;;;;;;;;4422112;32;20004;-70
2023/02/09 01:17:54;;;;;;;;;;;;;;;;;;4422661;32;19933;-69
2023/02/09 01:20:19;;;;;;;;;;;;;;;;;;4421072;32;19941;-70
2023/02/09 01:22:45;;;;;;;;;;;;;;;;;;4423175;32;19949;-70
2023/02/09 01:25:10;;;;;;;;;;;;;;;;;;4422205;32;20001;-70
2023/02/09 01:27:35;;;;;;;;;;;;;;;;;;4422542;32;19933;-69
2023/02/09 01:30:00;;;;;;;;;;;;;;;;;;4423288;32;19947;-68
2023/02/09 01:32:25;;;;;;;;;;;;;;;;;;4421998;32;19970;-69
2023/02/09 01:34:50;;;;;;;;;;;;;;;;;;4421178;32;19968;-70
2023/02/09 01:37:15;;;;;;;;;;;;;;;;;;4420030;32;20318;-70
2023/02/09 01:39:40;;;;;;;;;;;;;;;;;;4423021;32;20378;-70
2023/02/09 01:42:05;;;;;;;;;;;;;;;;;;4422740;32;19979;-70
2023/02/09 01:44:31;;;;;;;;;;;;;;;;;;4422518;32;20013;-70
2023/02/09 01:46:56;;;;;;;;;;;;;;;;;;4423509;32;19951;-70
2023/02/09 01:49:21;;;;;;;;;;;;;;;;;;4421140;32;19975;-70
2023/02/09 01:51:46;;;;;;;;;;;;;;;;;;4421227;32;19951;-68
2023/02/09 01:54:11;;;;;;;;;;;;;;;;;;4420057;32;19937;-70
2023/02/09 01:56:36;;;;;;;;;;;;;;;;;;4421605;32;20275;-69
2023/02/09 01:59:01;;;;;;;;;;;;;;;;;;4421674;32;19990;-69
2023/02/09 02:01:27;;;;;;;;;;;;;;;;;;4422813;32;19941;-69
2023/02/09 02:03:52;;;;;;;;;;;;;;;;;;4420803;32;19997;-70
2023/02/09 02:06:17;;;;;;;;;;;;;;;;;;4419597;32;19937;-69
2023/02/09 02:08:42;;;;;;;;;;;;;;;;;;4421403;32;19971;-70
2023/02/09 02:11:07;;;;;;;;;;;;;;;;;;4420672;32;19941;-70
2023/02/09 02:13:32;;;;;;;;;;;;;;;;;;4423059;32;19951;-70
2023/02/09 02:15:57;;;;;;;;;;;;;;;;;;4422301;32;20416;-70
2023/02/09 02:18:22;;;;;;;;;;;;;;;;;;4421651;32;19937;-69
2023/02/09 02:20:47;;;;;;;;;;;;;;;;;;4420161;32;19945;-69
2023/02/09 02:23:12;;;;;;;;;;;;;;;;;;4422533;32;19933;-69
2023/02/09 02:25:38;;;;;;;;;;;;;;;;;;4419411;32;19937;-69
2023/02/09 02:28:03;;;;;;;;;;;;;;;;;;4419349;32;19952;-69
2023/02/09 02:30:28;;;;;;;;;;;;;;;;;;4422225;32;19941;-69
2023/02/09 02:32:53;;;;;;;;;;;;;;;;;;4421162;32;19964;-69
2023/02/09 02:35:18;;;;;;;;;;;;;;;;;;4421128;32;19950;-70
2023/02/09 02:37:44;;;;;;;;;;;;;;;;;;4421377;32;19988;-71
2023/02/09 02:40:09;;;;;;;;;;;;;;;;;;4420692;32;19944;-69
2023/02/09 02:42:50;;;;;;;;;;;;;;;;;;4419660;32;20295;-69
2023/02/09 02:45:15;;;;;;;;;;;;;;;;;;4422178;32;19937;-70
2023/02/09 02:47:40;;;;;;;;;;;;;;;;;;4421128;32;20006;-70
2023/02/09 02:50:06;;;;;;;;;;;;;;;;;;4419738;32;19937;-70
2023/02/09 02:52:31;;;;;;;;;;;;;;;;;;4419483;32;19998;-69
2023/02/09 02:54:56;;;;;;;;;;;;;;;;;;4419060;32;19941;-69
2023/02/09 02:57:21;;;;;;;;;;;;;;;;;;4419978;32;19941;-69
2023/02/09 02:59:46;;;;;;;;;;;;;;;;;;4420773;32;19933;-70
2023/02/09 03:02:11;;;;;;;;;;;;;;;;;;4419547;32;19941;-69
2023/02/09 03:04:36;;;;;;;;;;;;;;;;;;4422906;32;19949;-70
2023/02/09 03:07:02;;;;;;;;;;;;;;;;;;4425092;32;19932;-69
2023/02/09 03:09:27;;;;;;;;;;;;;;;;;;4423801;32;19989;-69
2023/02/09 03:11:52;;;;;;;;;;;;;;;;;;4424508;32;19937;-70
2023/02/09 03:14:17;;;;;;;;;;;;;;;;;;4423137;32;19933;-69
2023/02/09 03:16:42;;;;;;;;;;;;;;;;;;4423824;32;19933;-69
2023/02/09 03:19:07;;;;;;;;;;;;;;;;;;4424031;32;19937;-69
2023/02/09 03:21:32;;;;;;;;;;;;;;;;;;4425158;32;20398;-68
2023/02/09 03:23:58;;;;;;;;;;;;;;;;;;4424463;32;19941;-69
2023/02/09 03:26:23;;;;;;;;;;;;;;;;;;4423108;32;20001;-69
2023/02/09 03:28:48;;;;;;;;;;;;;;;;;;4425087;32;19941;-69
2023/02/09 03:31:13;;;;;;;;;;;;;;;;;;4422613;32;19956;-69
2023/02/09 03:33:38;;;;;;;;;;;;;;;;;;4424184;32;19944;-69
2023/02/09 03:36:03;;;;;;;;;;;;;;;;;;4422808;32;19940;-71
2023/02/09 03:38:28;;;;;;;;;;;;;;;;;;4423964;32;20315;-68
2023/02/09 03:40:53;;;;;;;;;;;;;;;;;;4422808;32;19953;-69
2023/02/09 03:43:19;;;;;;;;;;;;;;;;;;4421985;32;19975;-70
2023/02/09 03:45:44;;;;;;;;;;;;;;;;;;4422157;32;19937;-69
2023/02/09 03:48:09;;;;;;;;;;;;;;;;;;4421878;32;19933;-68
2023/02/09 03:50:34;;;;;;;;;;;;;;;;;;4424923;32;19937;-68
2023/02/09 03:52:59;;;;;;;;;;;;;;;;;;4422245;32;19960;-68
2023/02/09 03:55:24;;;;;;;;;;;;;;;;;;4422984;32;19934;-68
2023/02/09 03:57:49;;;;;;;;;;;;;;;;;;4424484;32;19933;-69
2023/02/09 04:00:14;;;;;;;;;;;;;;;;;;4423624;32;19937;-69
2023/02/09 04:02:39;;;;;;;;;;;;;;;;;;4423237;32;20326;-69
2023/02/09 04:05:05;;;;;;;;;;;;;;;;;;4423227;32;19941;-69
2023/02/09 04:07:30;;;;;;;;;;;;;;;;;;4424908;32;20296;-69
2023/02/09 04:09:55;;;;;;;;;;;;;;;;;;4421185;32;19971;-70
2023/02/09 04:12:20;;;;;;;;;;;;;;;;;;4423310;32;19983;-69
2023/02/09 04:14:45;;;;;;;;;;;;;;;;;;4421978;32;19943;-69
2023/02/09 04:17:10;;;;;;;;;;;;;;;;;;4422198;32;19984;-69
2023/02/09 04:19:35;;;;;;;;;;;;;;;;;;4423185;32;19933;-69
2023/02/09 04:22:00;;;;;;;;;;;;;;;;;;4422686;32;19974;-69
2023/02/09 04:24:25;;;;;;;;;;;;;;;;;;4424251;32;19941;-69
2023/02/09 04:26:51;;;;;;;;;;;;;;;;;;4421768;32;20342;-69
2023/02/09 04:29:17;;;;;;;;;;;;;;;;;;4422675;32;19938;-69
2023/02/09 04:31:42;;;;;;;;;;;;;;;;;;4424368;32;19937;-69
2023/02/09 04:34:07;;;;;;;;;;;;;;;;;;4423419;32;19971;-68
2023/02/09 04:36:32;;;;;;;;;;;;;;;;;;4423917;32;19961;-69
2023/02/09 04:38:58;;;;;;;;;;;;;;;;;;4422089;32;20052;-69
2023/02/09 04:41:23;;;;;;;;;;;;;;;;;;4422726;32;19939;-69
2023/02/09 04:43:48;;;;;;;;;;;;;;;;;;4423192;32;19944;-70
2023/02/09 04:46:13;;;;;;;;;;;;;;;;;;4422713;32;19938;-69
2023/02/09 04:48:38;;;;;;;;;;;;;;;;;;4421327;32;20349;-69
2023/02/09 04:51:03;;;;;;;;;;;;;;;;;;4421166;32;20379;-68
2023/02/09 04:53:28;;;;;;;;;;;;;;;;;;4422379;32;20303;-69
2023/02/09 04:55:53;;;;;;;;;;;;;;;;;;4422464;32;19937;-70
2023/02/09 05:01:02;;;;;;;;;;;;;;;;;;4422974;32;19944;-69
2023/02/09 05:03:28;;;;;;;;;;;;;;;;;;4422073;32;19933;-69
2023/02/09 05:05:53;;;;;;;;;;;;;;;;;;4423562;32;19991;-70
2023/02/09 05:08:18;;;;;;;;;;;;;;;;;;4422933;32;20337;-70
2023/02/09 05:10:43;;;;;;;;;;;;;;;;;;4420910;32;19947;-69
2023/02/09 05:13:08;;;;;;;;;;;;;;;;;;4422292;32;19936;-68
2023/02/09 05:15:33;;;;;;;;;;;;;;;;;;4422479;32;19933;-69
2023/02/09 05:17:58;;;;;;;;;;;;;;;;;;4423191;32;20302;-69
2023/02/09 05:20:23;;;;;;;;;;;;;;;;;;4418528;32;19949;-70
2023/02/09 05:22:49;;;;;;;;;;;;;;;;;;4407646;32;20012;-67
2023/02/09 05:25:14;;;;;;;;;;;;;;;;;;4409008;32;19930;-69
2023/02/09 05:27:39;;;;;;;;;;;;;;;;;;4421921;32;19963;-69
2023/02/09 05:30:04;;;;;;;;;;;;;;;;;;4422946;32;20361;-70
2023/02/09 05:32:29;;;;;;;;;;;;;;;;;;4423343;32;19968;-69
2023/02/09 05:34:54;;;;;;;;;;;;;;;;;;4411001;32;20318;-69
2023/02/09 05:37:19;;;;;;;;;;;;;;;;;;4419850;32;20540;-69
2023/02/09 05:39:44;;;;;;;;;;;;;;;;;;4421879;32;19970;-69
2023/02/09 05:42:16;;;;;;;;;;;;;;;;;;4414192;32;19977;-70
2023/02/09 05:44:41;;;;;;;;;;;;;;;;;;4409056;32;19987;-70
2023/02/09 05:47:06;;;;;;;;;;;;;;;;;;4420355;32;19996;-69
2023/02/09 05:49:31;;;;;;;;;;;;;;;;;;4423448;32;19941;-70
2023/02/09 05:51:56;;;;;;;;;;;;;;;;;;4421331;32;19990;-69
2023/02/09 05:54:21;;;;;;;;;;;;;;;;;;4421136;32;20002;-69
2023/02/09 05:56:46;;;;;;;;;;;;;;;;;;4421929;32;19948;-69
2023/02/09 05:59:11;;;;;;;;;;;;;;;;;;4421865;32;20322;-71
2023/02/09 06:01:36;;;;;;;;;;;;;;;;;;4423581;32;19986;-68
2023/02/09 06:04:02;;;;;;;;;;;;;;;;;;4426059;32;19949;-70
2023/02/09 06:06:27;;;;;;;;;;;;;;;;;;4426550;32;19933;-70
2023/02/09 06:08:52;;;;;;;;;;;;;;;;;;4421859;32;19977;-69
2023/02/09 06:11:18;;;;;;;;;;;;;;;;;;4421033;32;19978;-70
2023/02/09 06:13:43;;;;;;;;;;;;;;;;;;4421634;32;20368;-69
2023/02/09 06:16:08;;;;;;;;;;;;;;;;;;4420811;32;19964;-69
2023/02/09 06:18:33;;;;;;;;;;;;;;;;;;4421336;32;19985;-71
2023/02/09 06:20:58;;;;;;;;;;;;;;;;;;4420002;32;19948;-69
2023/02/09 06:23:23;;;;;;;;;;;;;;;;;;4420774;32;19953;-69
2023/02/09 06:25:51;;;;;;;;;;;;;;;;;;4406674;32;19934;-69
2023/02/09 06:28:17;;;;;;;;;;;;;;;;;;4416288;32;19953;-71
2023/02/09 06:30:42;;;;;;;;;;;;;;;;;;4420627;32;19929;-70
2023/02/09 06:33:07;;;;;;;;;;;;;;;;;;4422348;32;19933;-69
2023/02/09 06:35:32;;;;;;;;;;;;;;;;;;4419959;32;20299;-69
2023/02/09 06:37:57;;;;;;;;;;;;;;;;;;4419435;32;19951;-70
2023/02/09 06:40:22;;;;;;;;;;;;;;;;;;4419885;32;19951;-70
2023/02/09 06:42:47;;;;;;;;;;;;;;;;;;4421135;32;19932;-70
2023/02/09 06:45:12;;;;;;;;;;;;;;;;;;4422238;32;19981;-70
2023/02/09 06:47:37;;;;;;;;;;;;;;;;;;4422080;32;20243;-70
2023/02/09 06:50:03;;;;;;;;;;;;;;;;;;4420810;32;19983;-70
2023/02/09 06:52:28;;;;;;;;;;;;;;;;;;4419103;32;20322;-70
2023/02/09 06:54:53;;;;;;;;;;;;;;;;;;4420746;32;20297;-70
2023/02/09 06:57:18;;;;;;;;;;;;;;;;;;4420801;32;20282;-71
2023/02/09 06:59:43;;;;;;;;;;;;;;;;;;4420102;32;19949;-70
2023/02/09 07:02:08;;;;;;;;;;;;;;;;;;4421573;32;20281;-69
2023/02/09 07:04:33;;;;;;;;;;;;;;;;;;4420555;32;19948;-69
2023/02/09 07:06:58;;;;;;;;;;;;;;;;;;4419913;32;19959;-70
2023/02/09 07:09:23;;;;;;;;;;;;;;;;;;4416733;32;19941;-70
2023/02/09 07:11:48;;;;;;;;;;;;;;;;;;4406428;32;19952;-69
2023/02/09 07:14:14;;;;;;;;;;;;;;;;;;4403657;32;19942;-69
2023/02/09 07:16:39;;;;;;;;;;;;;;;;;;4404332;32;19941;-69
2023/02/09 07:19:04;;;;;;;;;;;;;;;;;;4403710;32;19941;-70
2023/02/09 07:21:29;;;;;;;;;;;;;;;;;;4403770;32;19967;-70
2023/02/09 07:23:54;;;;;;;;;;;;;;;;;;4405219;32;19937;-69
2023/02/09 07:26:19;;;;;;;;;;;;;;;;;;4405854;32;19972;-69
2023/02/09 07:28:44;;;;;;;;;;;;;;;;;;4405893;32;19937;-70
2023/02/09 07:31:09;;;;;;;;;;;;;;;;;;4412297;32;19995;-70
2023/02/09 07:33:35;;;;;;;;;;;;;;;;;;4413931;32;19937;-69
2023/02/09 07:36:00;;;;;;;;;;;;;;;;;;4406955;32;20053;-69
2023/02/09 07:38:25;;;;;;;;;;;;;;;;;;4421413;32;20008;-69
2023/02/09 07:40:50;;;;;;;;;;;;;;;;;;4411206;32;20396;-70
2023/02/09 07:43:15;;;;;;;;;;;;;;;;;;4405218;32;19941;-69
2023/02/09 07:45:40;;;;;;;;;;;;;;;;;;4406244;32;20028;-69
2023/02/09 07:48:05;;;;;;;;;;;;;;;;;;4415361;32;19933;-69
2023/02/09 07:50:31;;;;;;;;;;;;;;;;;;4422165;32;19976;-69
2023/02/09 07:52:56;;;;;;;;;;;;;;;;;;4422308;32;19947;-70
2023/02/09 07:55:21;;;;;;;;;;;;;;;;;;4423118;32;19968;-70
2023/02/09 07:57:46;;;;;;;;;;;;;;;;;;4423607;32;20015;-70
2023/02/09 08:00:11;;;;;;;;;;;;;;;;;;4423701;32;19941;-70
2023/02/09 08:02:36;;;;;;;;;;;;;;;;;;4416701;32;19937;-70
2023/02/09 08:05:01;;;;;;;;;;;;;;;;;;4422709;32;19970;-70
2023/02/09 08:07:28;;;;;;;;;;;;;;;;;;4422827;32;20322;-70
2023/02/09 08:09:53;;;;;;;;;;;;;;;;;;4421492;32;19933;-70
2023/02/09 08:12:18;;;;;;;;;;;;;;;;;;4422869;32;19984;-70
2023/02/09 08:14:46;;;;;;;;;;;;;;;;;;4424314;32;19933;-69
2023/02/09 08:17:26;;;;;;;;;;;;;;;;;;4422544;32;20358;-70
2023/02/09 08:19:51;;;;;;;;;;;;;;;;;;4421969;32;19929;-69
2023/02/09 08:22:16;;;;;;;;;;;;;;;;;;4422187;32;19932;-70
2023/02/09 08:24:42;;;;;;;;;;;;;;;;;;4421285;32;19937;-69
2023/02/09 08:27:07;;;;;;;;;;;;;;;;;;4422811;32;19929;-69
2023/02/09 08:29:32;;;;;;;;;;;;;;;;;;4421356;32;19949;-71
2023/02/09 08:31:57;;;;;;;;;;;;;;;;;;4422294;32;20293;-70
2023/02/09 08:34:22;;;;;;;;;;;;;;;;;;4420916;32;19985;-70
2023/02/09 08:36:47;;;;;;;;;;;;;;;;;;4422169;32;19984;-70
2023/02/09 08:39:12;;;;;;;;;;;;;;;;;;4423312;32;19944;-68
2023/02/09 08:41:37;;;;;;;;;;;;;;;;;;4421843;32;19967;-68
2023/02/09 08:44:03;;;;;;;;;;;;;;;;;;4422102;32;19965;-70
2023/02/09 08:46:28;;;;;;;;;;;;;;;;;;4422165;32;19953;-69
2023/02/09 08:48:53;;;;;;;;;;;;;;;;;;4422009;32;19993;-69
2023/02/09 08:51:18;;;;;;;;;;;;;;;;;;4422389;32;19957;-70
2023/02/09 08:53:46;;;;;;;;;;;;;;;;;;4422869;32;19933;-69
2023/02/09 08:56:11;;;;;;;;;;;;;;;;;;4422963;32;20002;-70
2023/02/09 08:58:36;;;;;;;;;;;;;;;;;;4422127;32;19937;-69
2023/02/09 09:01:01;;;;;;;;;;;;;;;;;;4420581;32;20331;-69
2023/02/09 09:03:28;;;;;;;;;;;;;;;;;;4423385;32;19937;-70
2023/02/09 09:05:53;;;;;;;;;;;;;;;;;;4424316;32;19929;-69
2023/02/09 09:08:18;;;;;;;;;;;;;;;;;;4424391;32;19944;-69
2023/02/09 09:10:44;;;;;;;;;;;;;;;;;;4412505;32;19975;-70
2023/02/09 09:13:09;;;;;;;;;;;;;;;;;;4408361;32;19991;-70
2023/02/09 09:15:34;;;;;;;;;;;;;;;;;;4405999;32;20267;-70
2023/02/09 09:17:59;;;;;;;;;;;;;;;;;;4405162;32;19949;-69
2023/02/09 09:20:24;;;;;;;;;;;;;;;;;;4405551;32;19942;-70
2023/02/09 09:22:50;;;;;;;;;;;;;;;;;;4408632;32;20357;-69
2023/02/09 09:25:15;;;;;;;;;;;;;;;;;;4407153;32;19942;-68
2023/02/09 09:27:40;;;;;;;;;;;;;;;;;;4405285;32;19948;-69
2023/02/09 09:30:05;;;;;;;;;;;;;;;;;;4405440;32;19942;-70
2023/02/09 09:32:30;;;;;;;;;;;;;;;;;;4408182;32;19945;-68
2023/02/09 09:34:56;;;;;;;;;;;;;;;;;;4421159;32;19970;-69
2023/02/09 09:37:21;;;;;;;;;;;;;;;;;;4420448;32;19929;-70
2023/02/09 09:39:46;;;;;;;;;;;;;;;;;;4420434;32;19948;-69
2023/02/09 09:42:11;;;;;;;;;;;;;;;;;;4421935;32;19955;-69
2023/02/09 09:44:36;;;;;;;;;;;;;;;;;;4423080;32;19960;-69
2023/02/09 09:47:01;;;;;;;;;;;;;;;;;;4422006;32;20023;-70
2023/02/09 09:49:27;;;;;;;;;;;;;;;;;;4421845;32;19989;-70
2023/02/09 09:51:52;;;;;;;;;;;;;;;;;;4423151;32;19941;-70
2023/02/09 09:54:17;;;;;;;;;;;;;;;;;;4422524;32;19981;-70
2023/02/09 09:56:42;;;;;;;;;;;;;;;;;;4422021;32;19948;-70
2023/02/09 09:59:07;;;;;;;;;;;;;;;;;;4422994;32;19948;-70
2023/02/09 10:01:32;;;;;;;;;;;;;;;;;;4419946;32;20289;-70
2023/02/09 10:03:57;;;;;;;;;;;;;;;;;;4420030;32;19978;-70
2023/02/09 10:06:23;;;;;;;;;;;;;;;;;;4421547;32;19972;-68
2023/02/09 10:08:48;;;;;;;;;;;;;;;;;;4421544;32;19955;-69
2023/02/09 10:11:13;;;;;;;;;;;;;;;;;;4417407;32;20035;-70
2023/02/09 10:13:38;;;;;;;;;;;;;;;;;;4406311;32;20379;-70
2023/02/09 10:16:03;;;;;;;;;;;;;;;;;;4410530;32;19971;-69
2023/02/09 10:18:29;;;;;;;;;;;;;;;;;;4420814;32;19949;-68
2023/02/09 10:20:55;;;;;;;;;;;;;;;;;;4420591;32;20421;-70
2023/02/09 10:23:20;;;;;;;;;;;;;;;;;;4421237;32;19933;-70
2023/02/09 10:25:45;;;;;;;;;;;;;;;;;;4422422;32;19998;-70
2023/02/09 10:28:10;;;;;;;;;;;;;;;;;;4422483;32;19972;-70
2023/02/09 10:30:35;;;;;;;;;;;;;;;;;;4421353;32;19941;-70
2023/02/09 10:33:00;;;;;;;;;;;;;;;;;;4405615;32;20010;-70
2023/02/09 10:35:25;;;;;;;;;;;;;;;;;;4406790;32;19949;-71
2023/02/09 10:37:51;;;;;;;;;;;;;;;;;;4414113;32;19965;-70
2023/02/09 10:40:16;;;;;;;;;;;;;;;;;;4420461;32;19965;-70
2023/02/09 10:42:41;;;;;;;;;;;;;;;;;;4419104;32;19951;-70
2023/02/09 10:45:06;;;;;;;;;;;;;;;;;;4420179;32;19970;-70
2023/02/09 10:47:31;;;;;;;;;;;;;;;;;;4419263;32;20017;-69
2023/02/09 10:49:56;;;;;;;;;;;;;;;;;;4419483;32;19996;-69
2023/02/09 10:52:21;;;;;;;;;;;;;;;;;;4417350;32;19955;-71
2023/02/09 10:54:47;;;;;;;;;;;;;;;;;;4421534;32;19945;-70
2023/02/09 10:57:12;;;;;;;;;;;;;;;;;;4420434;32;20354;-70
2023/02/09 10:59:37;;;;;;;;;;;;;;;;;;4422855;32;19934;-70
2023/02/09 11:02:02;;;;;;;;;;;;;;;;;;4420304;32;19949;-70
2023/02/09 11:04:27;;;;;;;;;;;;;;;;;;4406340;32;19975;-71
2023/02/09 11:06:52;;;;;;;;;;;;;;;;;;4412837;32;19966;-69
2023/02/09 11:09:17;;;;;;;;;;;;;;;;;;4419221;32;19966;-70
2023/02/09 11:11:42;;;;;;;;;;;;;;;;;;4418713;32;19937;-70
2023/02/09 11:14:07;;;;;;;;;;;;;;;;;;4416344;32;19933;-71
2023/02/09 11:16:32;;;;;;;;;;;;;;;;;;4414624;32;19937;-69
2023/02/09 11:18:58;;;;;;;;;;;;;;;;;;4410764;32;19985;-70
2023/02/09 11:21:23;;;;;;;;;;;;;;;;;;4416531;32;19934;-70
2023/02/09 11:23:48;;;;;;;;;;;;;;;;;;4405011;32;19941;-69
2023/02/09 11:26:13;;;;;;;;;;;;;;;;;;4407929;32;19952;-68
2023/02/09 11:28:38;;;;;;;;;;;;;;;;;;4413821;32;20326;-69
2023/02/09 11:31:03;;;;;;;;;;;;;;;;;;4422831;32;19933;-70
2023/02/09 11:33:28;;;;;;;;;;;;;;;;;;4423073;32;19937;-70
2023/02/09 11:35:53;;;;;;;;;;;;;;;;;;4423797;32;19948;-70
2023/02/09 11:38:19;;;;;;;;;;;;;;;;;;4423368;32;19941;-70
2023/02/09 11:40:44;;;;;;;;;;;;;;;;;;4422373;32;20224;-70
2023/02/09 11:43:09;;;;;;;;;;;;;;;;;;4422160;32;20286;-69
2023/02/09 11:45:34;;;;;;;;;;;;;;;;;;4423610;32;19933;-69
2023/02/09 11:47:59;;;;;;;;;;;;;;;;;;4424665;32;19975;-70
2023/02/09 11:50:24;;;;;;;;;;;;;;;;;;4421579;32;19937;-70
2023/02/09 11:52:49;;;;;;;;;;;;;;;;;;4421871;32;19989;-69
2023/02/09 11:55:15;;;;;;;;;;;;;;;;;;4423437;32;19951;-70
2023/02/09 11:57:40;;;;;;;;;;;;;;;;;;4422787;32;19947;-70
2023/02/09 12:00:05;;;;;;;;;;;;;;;;;;4423633;32;20000;-70
2023/02/09 12:02:30;;;;;;;;;;;;;;;;;;4425258;32;19945;-70
2023/02/09 12:04:55;;;;;;;;;;;;;;;;;;4423612;32;19937;-69
2023/02/09 12:07:20;;;;;;;;;;;;;;;;;;4424485;32;19956;-69
2023/02/09 12:09:46;;;;;;;;;;;;;;;;;;4411727;32;19979;-69
2023/02/09 12:12:11;;;;;;;;;;;;;;;;;;4408563;32;20376;-70
2023/02/09 12:14:36;;;;;;;;;;;;;;;;;;4405942;32;19937;-70
2023/02/09 12:17:01;;;;;;;;;;;;;;;;;;4406329;32;19981;-70
2023/02/09 12:19:26;;;;;;;;;;;;;;;;;;4408424;32;19968;-70
2023/02/09 12:21:51;;;;;;;;;;;;;;;;;;4407364;32;19934;-73
2023/02/09 12:24:16;;;;;;;;;;;;;;;;;;4406610;32;19941;-71
2023/02/09 12:26:41;;;;;;;;;;;;;;;;;;4406632;32;19942;-70
2023/02/09 12:29:06;;;;;;;;;;;;;;;;;;4418457;32;19959;-71
2023/02/09 12:31:32;;;;;;;;;;;;;;;;;;4422420;32;19936;-69
2023/02/09 12:33:57;;;;;;;;;;;;;;;;;;4423499;32;19934;-71
2023/02/09 12:36:22;;;;;;;;;;;;;;;;;;4422605;32;19940;-70
2023/02/09 12:38:47;;;;;;;;;;;;;;;;;;4422896;32;19961;-70
2023/02/09 12:41:12;;;;;;;;;;;;;;;;;;4421130;32;19967;-70
2023/02/09 12:43:37;;;;;;;;;;;;;;;;;;4422317;32;19948;-70
2023/02/09 12:46:02;;;;;;;;;;;;;;;;;;4422601;32;19957;-70
2023/02/09 12:48:28;;;;;;;;;;;;;;;;;;4420802;32;19988;-71
2023/02/09 12:50:53;;;;;;;;;;;;;;;;;;4422930;32;19944;-71
2023/02/09 12:53:18;;;;;;;;;;;;;;;;;;4420542;32;20270;-71
2023/02/09 12:55:43;;;;;;;;;;;;;;;;;;4421711;32;19941;-70
2023/02/09 12:58:08;;;;;;;;;;;;;;;;;;4423389;32;19978;-70
2023/02/09 13:00:33;;;;;;;;;;;;;;;;;;4420320;32;19938;-70
2023/02/09 13:02:59;;;;;;;;;;;;;;;;;;4422138;32;19941;-70
2023/02/09 13:05:24;;;;;;;;;;;;;;;;;;4422152;32;19933;-70
2023/02/09 13:07:49;;;;;;;;;;;;;;;;;;4424123;32;19975;-70
2023/02/09 13:10:14;;;;;;;;;;;;;;;;;;4421788;32;19977;-70
2023/02/09 13:12:39;;;;;;;;;;;;;;;;;;4420401;32;19949;-70
2023/02/09 13:15:04;;;;;;;;;;;;;;;;;;4421678;32;19970;-70
2023/02/09 13:17:29;;;;;;;;;;;;;;;;;;4420804;32;20323;-71
2023/02/09 13:19:54;;;;;;;;;;;;;;;;;;4422238;32;20340;-70
2023/02/09 13:22:19;;;;;;;;;;;;;;;;;;4422378;32;19998;-70
2023/02/09 13:24:45;;;;;;;;;;;;;;;;;;4422161;32;19974;-71
2023/02/09 13:27:10;;;;;;;;;;;;;;;;;;4421554;32;19970;-70
2023/02/09 13:29:35;;;;;;;;;;;;;;;;;;4421443;32;19937;-72
2023/02/09 13:32:00;;;;;;;;;;;;;;;;;;4422578;32;20022;-71
2023/02/09 13:34:25;;;;;;;;;;;;;;;;;;4421474;32;19968;-70
2023/02/09 13:36:50;;;;;;;;;;;;;;;;;;4421296;32;19936;-70
2023/02/09 13:39:15;;;;;;;;;;;;;;;;;;4423252;32;20292;-70
2023/02/09 13:41:40;;;;;;;;;;;;;;;;;;4421370;32;20299;-70
2023/02/09 13:44:05;;;;;;;;;;;;;;;;;;4420845;32;19937;-70
2023/02/09 13:46:33;;;;;;;;;;;;;;;;;;4422286;32;19973;-71
2023/02/09 13:48:58;;;;;;;;;;;;;;;;;;4422797;32;19937;-71
2023/02/09 13:51:23;;;;;;;;;;;;;;;;;;4421970;32;19937;-70
2023/02/09 13:53:48;;;;;;;;;;;;;;;;;;4420644;32;19936;-70
2023/02/09 13:56:13;;;;;;;;;;;;;;;;;;4421676;32;19937;-70
2023/02/09 13:58:38;;;;;;;;;;;;;;;;;;4422637;32;20269;-70
2023/02/09 14:01:04;;;;;;;;;;;;;;;;;;4420557;32;19966;-71
2023/02/09 14:03:29;;;;;;;;;;;;;;;;;;4422941;32;19960;-70
2023/02/09 14:05:54;;;;;;;;;;;;;;;;;;4421347;32;19933;-70
2023/02/09 14:08:19;;;;;;;;;;;;;;;;;;4420975;32;20272;-69
2023/02/09 14:10:44;;;;;;;;;;;;;;;;;;4419881;32;19947;-69
2023/02/09 14:13:09;;;;;;;;;;;;;;;;;;4421123;32;19952;-69
2023/02/09 14:18:18;;;;;;;;;;;;;;;;;;4422169;32;19944;-70
2023/02/09 14:20:44;;;;;;;;;;;;;;;;;;4421840;32;19938;-70
2023/02/09 14:23:09;;;;;;;;;;;;;;;;;;4421168;32;20312;-69
2023/02/09 14:25:34;;;;;;;;;;;;;;;;;;4421355;32;19944;-70
2023/02/09 14:27:59;;;;;;;;;;;;;;;;;;4420429;32;19953;-70
2023/02/09 14:30:24;;;;;;;;;;;;;;;;;;4421265;32;19940;-70
2023/02/09 14:32:49;;;;;;;;;;;;;;;;;;4419297;32;19970;-69
2023/02/09 14:35:14;;;;;;;;;;;;;;;;;;4420781;32;19944;-72
2023/02/09 14:37:39;;;;;;;;;;;;;;;;;;4420637;32;19949;-70
2023/02/09 14:40:05;;;;;;;;;;;;;;;;;;4422220;32;19943;-70
2023/02/09 14:42:30;;;;;;;;;;;;;;;;;;4421716;32;19969;-71
2023/02/09 14:44:55;;;;;;;;;;;;;;;;;;4421631;32;20072;-70
2023/02/09 14:47:20;;;;;;;;;;;;;;;;;;4422741;32;20320;-69
2023/02/09 14:49:45;;;;;;;;;;;;;;;;;;4420528;32;19941;-70
2023/02/09 14:52:10;;;;;;;;;;;;;;;;;;4410577;32;20003;-71
2023/02/09 14:54:35;;;;;;;;;;;;;;;;;;4411727;32;19972;-72
2023/02/09 14:57:02;;;;;;;;;;;;;;;;;;4412410;32;20011;-71
2023/02/09 14:59:27;;;;;;;;;;;;;;;;;;4410371;32;19942;-70
2023/02/09 15:01:52;;;;;;;;;;;;;;;;;;4409607;32;19975;-70
2023/02/09 15:04:17;;;;;;;;;;;;;;;;;;4412281;32;19955;-70
2023/02/09 15:06:42;;;;;;;;;;;;;;;;;;4412757;32;19946;-70
2023/02/09 15:09:08;;;;;;;;;;;;;;;;;;4410404;32;19938;-70
2023/02/09 15:14:17;;;;;;;;;;;;;;;;;;4418317;32;20340;-70
2023/02/09 15:16:42;;;;;;;;;;;;;;;;;;4418130;32;19945;-71
2023/02/09 15:19:07;;;;;;;;;;;;;;;;;;4421268;32;19979;-69
2023/02/09 15:21:32;;;;;;;;;;;;;;;;;;4415891;32;20328;-70
2023/02/09 15:23:57;;;;;;;;;;;;;;;;;;4420278;32;20216;-69
2023/02/09 15:26:25;;;;;;;;;;;;;;;;;;4417052;32;19952;-70
2023/02/09 15:28:50;;;;;;;;;;;;;;;;;;4410299;32;20017;-70
2023/02/09 15:31:15;;;;;;;;;;;;;;;;;;4409644;32;19945;-70
2023/02/09 15:33:40;;;;;;;;;;;;;;;;;;4415567;32;19977;-70
2023/02/09 15:36:06;;;;;;;;;;;;;;;;;;4420395;32;19933;-70
2023/02/09 15:38:31;;;;;;;;;;;;;;;;;;4419753;32;19985;-70
2023/02/09 15:49:08;;;;;;;;;;;;;;;;;;4412575;32;19940;-70
2023/02/09 15:51:33;;;;;;;;;;;;;;;;;;4415275;32;19945;-69
2023/02/09 15:53:58;;;;;;;;;;;;;;;;;;4418832;32;20392;-71
2023/02/09 15:56:23;;;;;;;;;;;;;;;;;;4419969;32;19938;-68
2023/02/09 15:58:49;;;;;;;;;;;;;;;;;;4415917;32;19934;-69
2023/02/09 16:01:15;;;;;;;;;;;;;;;;;;4412540;32;20337;-69
2023/02/09 16:03:40;;;;;;;;;;;;;;;;;;4411345;32;19981;-70
2023/02/09 16:06:05;;;;;;;;;;;;;;;;;;4419120;32;19941;-70
2023/02/09 16:08:34;;;;;;;;;;;;;;;;;;4408904;32;19956;-70
2023/02/09 16:10:59;;;;;;;;;;;;;;;;;;4403518;32;19948;-70
2023/02/09 16:13:25;;;;;;;;;;;;;;;;;;4411391;32;19949;-70
2023/02/09 16:15:50;;;;;;;;;;;;;;;;;;4406786;32;19942;-70
2023/02/09 16:18:15;;;;;;;;;;;;;;;;;;4416796;32;20267;-69
2023/02/09 16:20:45;;;;;;;;;;;;;;;;;;4421433;32;19973;-70
2023/02/09 16:23:10;;;;;;;;;;;;;;;;;;4414168;32;19934;-69
2023/02/09 16:25:35;;;;;;;;;;;;;;;;;;4407467;32;19985;-70
2023/02/09 16:28:00;;;;;;;;;;;;;;;;;;4415697;32;19978;-70
2023/02/09 16:30:25;;;;;;;;;;;;;;;;;;4423033;32;20220;-69
2023/02/09 16:32:50;;;;;;;;;;;;;;;;;;4422750;32;19941;-70
2023/02/09 16:35:15;;;;;;;;;;;;;;;;;;4422694;32;19938;-70
2023/02/09 16:37:41;;;;;;;;;;;;;;;;;;4417005;32;19995;-70
2023/02/09 16:40:07;;;;;;;;;;;;;;;;;;4407719;32;20262;-70
2023/02/09 16:42:32;;;;;;;;;;;;;;;;;;4407295;32;20297;-70
2023/02/09 16:44:58;;;;;;;;;;;;;;;;;;4405869;32;19957;-70
2023/02/09 16:47:24;;;;;;;;;;;;;;;;;;4410448;32;20014;-71
2023/02/09 16:49:50;;;;;;;;;;;;;;;;;;4415883;32;19993;-71
2023/02/09 16:52:15;;;;;;;;;;;;;;;;;;4405414;32;19945;-70
2023/02/09 16:54:41;;;;;;;;;;;;;;;;;;4413133;32;19940;-70